sensor_id;sensor_type;location;lat;lon;timestamp;P1;durP1;ratioP1;P2;durP2;ratioP2
85742;SDS011;76184;42.004;21.420;2024-01-30T15:16:44;9.35;;;4.28;;
85742;SDS011;76184;42.004;21.420;2024-01-30T15:19:10;8.32;;;4.25;;
85742;SDS011;76184;42.004;21.420;2024-01-30T15:21:36;9.77;;;4.03;;
85742;SDS011;76184;42.004;21.420;2024-01-30T15:24:05;10.68;;;4.35;;
85742;SDS011;76184;42.004;21.420;2024-01-30T15:26:31;8.77;;;4.25;;
85742;SDS011;76184;42.004;21.420;2024-01-30T15:28:57;8.90;;;4.65;;
85742;SDS011;76184;42.004;21.420;2024-01-30T15:31:23;10.35;;;5.18;;
85742;SDS011;76184;42.004;21.420;2024-01-30T15:33:49;7.45;;;3.97;;
85742;SDS011;76184;42.004;21.420;2024-01-30T15:36:15;8.50;;;4.55;;
85742;SDS011;76184;42.004;21.420;2024-01-30T15:38:42;12.48;;;5.63;;
85742;SDS011;76184;42.004;21.420;2024-01-30T15:41:08;12.35;;;5.13;;
85742;SDS011;76184;42.004;21.420;2024-01-30T15:43:34;13.85;;;5.45;;
85742;SDS011;76184;42.004;21.420;2024-01-30T15:46:01;10.40;;;5.50;;
85742;SDS011;76184;42.004;21.420;2024-01-30T15:48:27;11.10;;;5.07;;
85742;SDS011;76184;42.004;21.420;2024-01-30T15:50:53;11.35;;;5.28;;
85742;SDS011;76184;42.004;21.420;2024-01-30T15:53:20;11.30;;;5.03;;
85742;SDS011;76184;42.004;21.420;2024-01-30T15:55:52;8.95;;;4.97;;
85742;SDS011;76184;42.004;21.420;2024-01-30T15:58:18;12.05;;;5.00;;
85742;SDS011;76184;42.004;21.420;2024-01-30T16:00:45;16.60;;;8.10;;
85742;SDS011;76184;42.004;21.420;2024-01-30T16:03:11;16.00;;;6.63;;
85742;SDS011;76184;42.004;21.420;2024-01-30T16:05:37;12.57;;;6.18;;
85742;SDS011;76184;42.004;21.420;2024-01-30T16:08:04;13.10;;;6.47;;
85742;SDS011;76184;42.004;21.420;2024-01-30T16:10:30;13.73;;;6.60;;
85742;SDS011;76184;42.004;21.420;2024-01-30T16:12:56;13.20;;;6.28;;
85742;SDS011;76184;42.004;21.420;2024-01-30T16:15:22;13.00;;;6.30;;
85742;SDS011;76184;42.004;21.420;2024-01-30T16:17:50;18.23;;;7.90;;
85742;SDS011;76184;42.004;21.420;2024-01-30T16:20:16;16.42;;;8.77;;
85742;SDS011;76184;42.004;21.420;2024-01-30T16:22:42;16.60;;;8.20;;
85742;SDS011;76184;42.004;21.420;2024-01-30T16:25:09;20.30;;;9.18;;
85742;SDS011;76184;42.004;21.420;2024-01-30T16:27:35;13.23;;;7.60;;
85742;SDS011;76184;42.004;21.420;2024-01-30T16:30:02;13.32;;;7.45;;
85742;SDS011;76184;42.004;21.420;2024-01-30T16:32:28;15.68;;;7.25;;
85742;SDS011;76184;42.004;21.420;2024-01-30T16:34:57;17.88;;;7.30;;
85742;SDS011;76184;42.004;21.420;2024-01-30T16:37:23;16.63;;;8.85;;
85742;SDS011;76184;42.004;21.420;2024-01-30T16:39:50;13.90;;;6.93;;
85742;SDS011;76184;42.004;21.420;2024-01-30T16:42:16;15.95;;;7.22;;
85742;SDS011;76184;42.004;21.420;2024-01-30T16:44:42;12.80;;;6.60;;
85742;SDS011;76184;42.004;21.420;2024-01-30T16:47:09;15.27;;;6.30;;
85742;SDS011;76184;42.004;21.420;2024-01-30T16:49:35;12.93;;;5.97;;
85742;SDS011;76184;42.004;21.420;2024-01-30T16:52:01;12.48;;;6.30;;
85742;SDS011;76184;42.004;21.420;2024-01-30T16:54:29;13.23;;;7.18;;
85742;SDS011;76184;42.004;21.420;2024-01-30T16:56:56;13.30;;;6.30;;
85742;SDS011;76184;42.004;21.420;2024-01-30T16:59:22;14.15;;;6.38;;
85742;SDS011;76184;42.004;21.420;2024-01-30T17:01:48;15.60;;;7.18;;
85742;SDS011;76184;42.004;21.420;2024-01-30T17:04:15;14.15;;;6.35;;
85742;SDS011;76184;42.004;21.420;2024-01-30T17:06:46;12.80;;;5.95;;
85742;SDS011;76184;42.004;21.420;2024-01-30T17:09:12;13.75;;;6.90;;
85742;SDS011;76184;42.004;21.420;2024-01-30T17:11:40;12.15;;;6.57;;
85742;SDS011;76184;42.004;21.420;2024-01-30T17:14:07;11.93;;;6.78;;
85742;SDS011;76184;42.004;21.420;2024-01-30T17:16:34;17.15;;;7.85;;
85742;SDS011;76184;42.004;21.420;2024-01-30T17:19:00;20.85;;;9.70;;
85742;SDS011;76184;42.004;21.420;2024-01-30T17:21:26;18.95;;;8.25;;
85742;SDS011;76184;42.004;21.420;2024-01-30T17:23:53;17.17;;;9.70;;
85742;SDS011;76184;42.004;21.420;2024-01-30T17:26:19;20.65;;;11.13;;
85742;SDS011;76184;42.004;21.420;2024-01-30T17:28:46;23.88;;;11.07;;
85742;SDS011;76184;42.004;21.420;2024-01-30T17:31:12;19.67;;;10.18;;
85742;SDS011;76184;42.004;21.420;2024-01-30T17:33:38;19.55;;;9.77;;
85742;SDS011;76184;42.004;21.420;2024-01-30T17:36:06;17.98;;;9.05;;
85742;SDS011;76184;42.004;21.420;2024-01-30T17:38:33;20.15;;;9.02;;
85742;SDS011;76184;42.004;21.420;2024-01-30T17:40:59;20.50;;;9.07;;
85742;SDS011;76184;42.004;21.420;2024-01-30T17:43:25;20.70;;;10.20;;
85742;SDS011;76184;42.004;21.420;2024-01-30T17:45:51;20.52;;;10.00;;
85742;SDS011;76184;42.004;21.420;2024-01-30T17:48:17;17.67;;;9.70;;
85742;SDS011;76184;42.004;21.420;2024-01-30T17:50:43;19.27;;;9.80;;
85742;SDS011;76184;42.004;21.420;2024-01-30T17:53:10;20.58;;;9.60;;
85742;SDS011;76184;42.004;21.420;2024-01-30T17:55:41;18.98;;;10.18;;
85742;SDS011;76184;42.004;21.420;2024-01-30T17:58:07;18.60;;;9.80;;
85742;SDS011;76184;42.004;21.420;2024-01-30T18:00:34;17.15;;;8.77;;
85742;SDS011;76184;42.004;21.420;2024-01-30T18:03:00;21.02;;;9.35;;
85742;SDS011;76184;42.004;21.420;2024-01-30T18:05:29;16.67;;;8.68;;
85742;SDS011;76184;42.004;21.420;2024-01-30T18:07:55;22.77;;;9.00;;
85742;SDS011;76184;42.004;21.420;2024-01-30T18:10:21;17.70;;;8.70;;
85742;SDS011;76184;42.004;21.420;2024-01-30T18:12:47;21.70;;;8.52;;
85742;SDS011;76184;42.004;21.420;2024-01-30T18:15:16;16.05;;;8.48;;
85742;SDS011;76184;42.004;21.420;2024-01-30T18:17:42;17.40;;;8.70;;
85742;SDS011;76184;42.004;21.420;2024-01-30T18:20:08;20.92;;;10.27;;
85742;SDS011;76184;42.004;21.420;2024-01-30T18:22:34;22.23;;;10.60;;
85742;SDS011;76184;42.004;21.420;2024-01-30T18:25:00;22.08;;;11.27;;
85742;SDS011;76184;42.004;21.420;2024-01-30T18:27:28;32.30;;;12.45;;
85742;SDS011;76184;42.004;21.420;2024-01-30T18:29:54;24.85;;;12.13;;
85742;SDS011;76184;42.004;21.420;2024-01-30T18:32:20;28.17;;;12.65;;
85742;SDS011;76184;42.004;21.420;2024-01-30T18:34:48;32.35;;;14.38;;
85742;SDS011;76184;42.004;21.420;2024-01-30T18:37:14;32.80;;;14.70;;
85742;SDS011;76184;42.004;21.420;2024-01-30T18:39:40;34.80;;;15.68;;
85742;SDS011;76184;42.004;21.420;2024-01-30T18:42:08;31.58;;;14.25;;
85742;SDS011;76184;42.004;21.420;2024-01-30T18:44:34;31.67;;;16.02;;
85742;SDS011;76184;42.004;21.420;2024-01-30T18:47:00;33.45;;;15.85;;
85742;SDS011;76184;42.004;21.420;2024-01-30T18:49:26;27.95;;;15.98;;
85742;SDS011;76184;42.004;21.420;2024-01-30T18:51:52;41.85;;;16.60;;
85742;SDS011;76184;42.004;21.420;2024-01-30T18:54:20;36.20;;;16.20;;
85742;SDS011;76184;42.004;21.420;2024-01-30T18:56:46;29.33;;;15.25;;
85742;SDS011;76184;42.004;21.420;2024-01-30T18:59:12;33.28;;;16.90;;
85742;SDS011;76184;42.004;21.420;2024-01-30T19:01:42;30.60;;;16.63;;
85742;SDS011;76184;42.004;21.420;2024-01-30T19:04:09;33.08;;;16.83;;
85742;SDS011;76184;42.004;21.420;2024-01-30T19:06:36;29.02;;;15.98;;
85742;SDS011;76184;42.004;21.420;2024-01-30T19:09:03;29.38;;;15.27;;
85742;SDS011;76184;42.004;21.420;2024-01-30T19:11:31;32.10;;;18.00;;
85742;SDS011;76184;42.004;21.420;2024-01-30T19:13:57;31.55;;;16.95;;
85742;SDS011;76184;42.004;21.420;2024-01-30T19:16:23;34.42;;;16.95;;
85742;SDS011;76184;42.004;21.420;2024-01-30T19:18:49;33.60;;;17.50;;
85742;SDS011;76184;42.004;21.420;2024-01-30T19:21:16;32.33;;;17.90;;
85742;SDS011;76184;42.004;21.420;2024-01-30T19:23:42;31.88;;;17.67;;
85742;SDS011;76184;42.004;21.420;2024-01-30T19:26:08;36.00;;;16.15;;
85742;SDS011;76184;42.004;21.420;2024-01-30T19:28:35;29.80;;;16.40;;
85742;SDS011;76184;42.004;21.420;2024-01-30T19:31:02;29.38;;;15.90;;
85742;SDS011;76184;42.004;21.420;2024-01-30T19:33:28;34.45;;;15.63;;
85742;SDS011;76184;42.004;21.420;2024-01-30T19:35:54;31.50;;;14.98;;
85742;SDS011;76184;42.004;21.420;2024-01-30T19:38:21;28.60;;;15.85;;
85742;SDS011;76184;42.004;21.420;2024-01-30T19:40:49;32.35;;;16.60;;
85742;SDS011;76184;42.004;21.420;2024-01-30T19:43:17;30.83;;;15.20;;
85742;SDS011;76184;42.004;21.420;2024-01-30T19:45:43;27.77;;;13.25;;
85742;SDS011;76184;42.004;21.420;2024-01-30T19:48:09;24.25;;;13.73;;
85742;SDS011;76184;42.004;21.420;2024-01-30T19:50:35;27.85;;;13.45;;
85742;SDS011;76184;42.004;21.420;2024-01-30T19:53:02;33.95;;;13.82;;
85742;SDS011;76184;42.004;21.420;2024-01-30T19:55:28;28.23;;;13.43;;
85742;SDS011;76184;42.004;21.420;2024-01-30T19:57:55;27.73;;;12.70;;
85742;SDS011;76184;42.004;21.420;2024-01-30T20:00:22;25.88;;;13.48;;
85742;SDS011;76184;42.004;21.420;2024-01-30T20:02:48;32.17;;;15.90;;
85742;SDS011;76184;42.004;21.420;2024-01-30T20:05:14;28.35;;;13.57;;
85742;SDS011;76184;42.004;21.420;2024-01-30T20:07:41;26.40;;;14.15;;
85742;SDS011;76184;42.004;21.420;2024-01-30T20:10:07;28.13;;;13.73;;
85742;SDS011;76184;42.004;21.420;2024-01-30T20:12:34;35.35;;;17.40;;
85742;SDS011;76184;42.004;21.420;2024-01-30T20:15:02;40.35;;;19.30;;
85742;SDS011;76184;42.004;21.420;2024-01-30T20:17:29;39.75;;;17.05;;
85742;SDS011;76184;42.004;21.420;2024-01-30T20:19:57;32.60;;;16.75;;
85742;SDS011;76184;42.004;21.420;2024-01-30T20:22:23;30.10;;;16.42;;
85742;SDS011;76184;42.004;21.420;2024-01-30T20:24:49;27.60;;;15.02;;
85742;SDS011;76184;42.004;21.420;2024-01-30T20:27:17;30.40;;;15.68;;
85742;SDS011;76184;42.004;21.420;2024-01-30T20:29:43;28.40;;;15.07;;
85742;SDS011;76184;42.004;21.420;2024-01-30T20:32:09;30.25;;;16.45;;
85742;SDS011;76184;42.004;21.420;2024-01-30T20:34:36;32.85;;;16.05;;
85742;SDS011;76184;42.004;21.420;2024-01-30T20:37:02;37.08;;;19.48;;
85742;SDS011;76184;42.004;21.420;2024-01-30T20:39:28;46.47;;;20.85;;
85742;SDS011;76184;42.004;21.420;2024-01-30T20:41:54;48.58;;;21.73;;
85742;SDS011;76184;42.004;21.420;2024-01-30T20:44:21;47.67;;;22.60;;
85742;SDS011;76184;42.004;21.420;2024-01-30T20:46:47;52.72;;;22.90;;
85742;SDS011;76184;42.004;21.420;2024-01-30T20:49:13;52.72;;;26.50;;
85742;SDS011;76184;42.004;21.420;2024-01-30T20:51:39;49.65;;;23.85;;
85742;SDS011;76184;42.004;21.420;2024-01-30T20:54:06;53.78;;;25.38;;
85742;SDS011;76184;42.004;21.420;2024-01-30T20:56:32;49.63;;;25.35;;
85742;SDS011;76184;42.004;21.420;2024-01-30T20:58:58;46.47;;;22.25;;
85742;SDS011;76184;42.004;21.420;2024-01-30T21:01:24;38.22;;;20.65;;
85742;SDS011;76184;42.004;21.420;2024-01-30T21:03:50;41.83;;;21.08;;
85742;SDS011;76184;42.004;21.420;2024-01-30T21:06:16;40.65;;;21.65;;
85742;SDS011;76184;42.004;21.420;2024-01-30T21:08:45;44.60;;;23.27;;
85742;SDS011;76184;42.004;21.420;2024-01-30T21:11:11;47.33;;;23.23;;
85742;SDS011;76184;42.004;21.420;2024-01-30T21:13:37;43.28;;;25.00;;
85742;SDS011;76184;42.004;21.420;2024-01-30T21:16:04;45.60;;;22.98;;
85742;SDS011;76184;42.004;21.420;2024-01-30T21:18:30;43.38;;;23.35;;
85742;SDS011;76184;42.004;21.420;2024-01-30T21:20:57;45.17;;;22.13;;
85742;SDS011;76184;42.004;21.420;2024-01-30T21:23:23;38.65;;;20.83;;
85742;SDS011;76184;42.004;21.420;2024-01-30T21:25:49;42.97;;;21.70;;
85742;SDS011;76184;42.004;21.420;2024-01-30T21:28:15;48.17;;;23.95;;
85742;SDS011;76184;42.004;21.420;2024-01-30T21:30:43;44.72;;;21.35;;
85742;SDS011;76184;42.004;21.420;2024-01-30T21:33:10;41.67;;;19.92;;
85742;SDS011;76184;42.004;21.420;2024-01-30T21:35:36;43.88;;;20.98;;
85742;SDS011;76184;42.004;21.420;2024-01-30T21:38:02;44.88;;;22.90;;
85742;SDS011;76184;42.004;21.420;2024-01-30T21:40:29;42.15;;;21.75;;
85742;SDS011;76184;42.004;21.420;2024-01-30T21:42:55;41.25;;;20.27;;
85742;SDS011;76184;42.004;21.420;2024-01-30T21:45:22;44.88;;;21.20;;
85742;SDS011;76184;42.004;21.420;2024-01-30T21:47:49;47.63;;;22.88;;
85742;SDS011;76184;42.004;21.420;2024-01-30T21:50:19;49.58;;;25.33;;
85742;SDS011;76184;42.004;21.420;2024-01-30T21:52:45;52.45;;;24.10;;
85742;SDS011;76184;42.004;21.420;2024-01-30T21:55:11;52.30;;;26.45;;
85742;SDS011;76184;42.004;21.420;2024-01-30T21:57:37;57.38;;;26.77;;
85742;SDS011;76184;42.004;21.420;2024-01-30T22:00:04;62.55;;;28.52;;
85742;SDS011;76184;42.004;21.420;2024-01-30T22:02:32;58.80;;;27.70;;
85742;SDS011;76184;42.004;21.420;2024-01-30T22:04:58;60.15;;;30.90;;
85742;SDS011;76184;42.004;21.420;2024-01-30T22:07:24;62.00;;;31.75;;
85742;SDS011;76184;42.004;21.420;2024-01-30T22:09:51;69.72;;;35.10;;
85742;SDS011;76184;42.004;21.420;2024-01-30T22:12:17;82.68;;;39.28;;
85742;SDS011;76184;42.004;21.420;2024-01-30T22:14:43;85.22;;;39.25;;
85742;SDS011;76184;42.004;21.420;2024-01-30T22:17:09;81.07;;;38.45;;
85742;SDS011;76184;42.004;21.420;2024-01-30T22:19:35;76.03;;;36.28;;
85742;SDS011;76184;42.004;21.420;2024-01-30T22:22:01;76.50;;;35.47;;
85742;SDS011;76184;42.004;21.420;2024-01-30T22:24:28;72.55;;;33.42;;
85742;SDS011;76184;42.004;21.420;2024-01-30T22:26:55;68.32;;;35.65;;
85742;SDS011;76184;42.004;21.420;2024-01-30T22:29:21;66.40;;;32.45;;
85742;SDS011;76184;42.004;21.420;2024-01-30T22:31:47;73.38;;;34.75;;
85742;SDS011;76184;42.004;21.420;2024-01-30T22:34:13;69.13;;;35.25;;
85742;SDS011;76184;42.004;21.420;2024-01-30T22:36:39;68.47;;;35.10;;
85742;SDS011;76184;42.004;21.420;2024-01-30T22:39:06;62.30;;;32.80;;
85742;SDS011;76184;42.004;21.420;2024-01-30T22:41:36;65.55;;;33.80;;
85742;SDS011;76184;42.004;21.420;2024-01-30T22:44:02;62.42;;;32.55;;
85742;SDS011;76184;42.004;21.420;2024-01-30T22:46:29;65.15;;;31.30;;
85742;SDS011;76184;42.004;21.420;2024-01-30T22:48:55;57.13;;;31.77;;
85742;SDS011;76184;42.004;21.420;2024-01-30T22:51:21;61.40;;;28.63;;
85742;SDS011;76184;42.004;21.420;2024-01-30T22:53:47;57.65;;;29.35;;
85742;SDS011;76184;42.004;21.420;2024-01-30T22:56:14;55.47;;;28.92;;
85742;SDS011;76184;42.004;21.420;2024-01-30T22:58:40;78.63;;;34.10;;
85742;SDS011;76184;42.004;21.420;2024-01-30T23:01:07;104.18;;;43.90;;
85742;SDS011;76184;42.004;21.420;2024-01-30T23:03:33;92.85;;;39.42;;
85742;SDS011;76184;42.004;21.420;2024-01-30T23:05:59;110.10;;;43.78;;
85742;SDS011;76184;42.004;21.420;2024-01-30T23:08:25;91.68;;;36.78;;
85742;SDS011;76184;42.004;21.420;2024-01-30T23:10:51;99.00;;;39.70;;
85742;SDS011;76184;42.004;21.420;2024-01-30T23:13:17;96.63;;;40.38;;
85742;SDS011;76184;42.004;21.420;2024-01-30T23:15:44;84.25;;;35.03;;
85742;SDS011;76184;42.004;21.420;2024-01-30T23:18:10;68.47;;;29.35;;
85742;SDS011;76184;42.004;21.420;2024-01-30T23:20:36;56.92;;;25.45;;
85742;SDS011;76184;42.004;21.420;2024-01-30T23:23:03;53.63;;;24.45;;
85742;SDS011;76184;42.004;21.420;2024-01-30T23:25:31;43.75;;;20.50;;
85742;SDS011;76184;42.004;21.420;2024-01-30T23:27:57;42.58;;;22.25;;
85742;SDS011;76184;42.004;21.420;2024-01-30T23:30:23;42.90;;;22.55;;
85742;SDS011;76184;42.004;21.420;2024-01-30T23:32:50;41.92;;;20.45;;
85742;SDS011;76184;42.004;21.420;2024-01-30T23:35:19;45.90;;;21.38;;
85742;SDS011;76184;42.004;21.420;2024-01-30T23:37:46;46.22;;;21.02;;
85742;SDS011;76184;42.004;21.420;2024-01-30T23:40:12;42.80;;;21.35;;
85742;SDS011;76184;42.004;21.420;2024-01-30T23:42:38;36.95;;;20.23;;
85742;SDS011;76184;42.004;21.420;2024-01-30T23:45:04;35.65;;;20.30;;
85742;SDS011;76184;42.004;21.420;2024-01-30T23:47:31;37.30;;;18.83;;
85742;SDS011;76184;42.004;21.420;2024-01-30T23:49:57;38.92;;;17.65;;
85742;SDS011;76184;42.004;21.420;2024-01-30T23:52:23;33.63;;;18.08;;
85742;SDS011;76184;42.004;21.420;2024-01-30T23:54:50;34.47;;;17.63;;
85742;SDS011;76184;42.004;21.420;2024-01-30T23:57:16;37.95;;;18.33;;
85742;SDS011;76184;42.004;21.420;2024-01-30T23:59:42;36.55;;;17.15;;
